Ana Sayfa
METAR-TAF:

METAR-TAF

Havaalanları :

Port Meadville Airport

Meadville, Pensilvanya, Amerika Birleşik Devletleri

Enlem: 41-37-35N, Boylam: 080-12-53W, yükseklik: 427 m

Güncel hava durumu gözlemi

Rapor saat 04:53 UTC de 44 dakika önce yapıldı.
Rüzgar kuzey/kuzeydoğudan 4 kt
Sıcaklık 5°C
Nem 87%
Basınç 1011 hPa
Görüş mesafesi: 16.1 km
4200 ft yükseklikte parçalı çok bulutlu
7500 ft yükseklikte çok bulutlu

METAR: KGKJ 010453Z AUTO 03004KT 10SM BKN042 OVC075 05/03 A2984 RMK AO2 SLP113 T00500033 400670017

Saat: 01:37 (05:37 UTC)


TAF: eksik

4.000'den fazla havaalanı için hava durumu gözlemleri ve tahminleri (METAR ve TAF raporları).

Kullanılabilir istasyonlar harita üzerinde sarı ve kırmızı noktalarla gösterilir.

İstasyonun adını görmek için fareyi noktanın üzerinde gezdirin.

Sonrasında hava gözlem ve tahminlerini görmek için tıklayın.

Haritayı değiştirmek için: yaklaştırmak için siyah artı işaretli yeşil düğmeye ve uzaklaştırmak için de eksi işaretli düğmeye hızla tıklayın; bitişik haritalar için yeşil okları kullanın.


METAR-TAF: